テルアビブ / ベン・グリオン の空港の天気 - METARとTAF

ベン・グリオン国際空港(テルアビブ) ( LLBG / TLV ) - イスラエル ロード / テルアビブ
飛行場実況気象(Metar)
観測時間02/26 05:20 IST (02/26 03:20 UTC)
風向・風速不定 2m/s
視程10km以上
天気現象
少しの雲 雲底高度 1160m
気温15℃
湿度82%
気圧1010hPa
METARLLBG 260320Z VRB03KT 9999 FEW038 15/12 Q1010 TEMPO RA BKN060 RMK BKN090
過去の天気等 Google飛行場航空写真 Wunderground天気予報

過去48時間のMETAR

飛行場予報(TAF)
発表時間: 2/26 01:19 IST (2/25 23:19 UTC)
予報対象時間: 26日2時 IST ~ 27日2時 IST
風向・風速不定 2m/s
視程10km以上
少しの雲 雲底高度 910m
26日5時 IST から 確率 30% で
風向・風速南南東 3m/s
視程7,000m
天気現象
全天の8割程度の雲 雲底高度 1,830m
26日9時 IST ~ 26日11時 IST に徐々に
風向・風速南西 5m/s
少しの雲 雲底高度 1,070m
26日17時 IST ~ 26日19時 IST に徐々に
風向・風速南南東 2m/s
27日0時 IST から 確率 30% で
風向・風速西南西 5m/s
視程5,000m
天気現象雷雨
少しの積乱雲 雲底高度 760m
全天の8割程度の雲 雲底高度 910m
TAF LLBG 252319Z 2600/2624 VRB03KT 9999 FEW030
PROB30 2603/2607 15006KT 7000 RA BKN060
BECMG 2607/2609 22010KT FEW035
BECMG 2615/2617 16004KT
PROB30 2622/2624 24010KT 5000 TSRA FEW025CB BKN030 TX22/2611Z TN13/2604Z